Time;durP1;ratioP1;P1;durP2;ratioP2;P2;SDS_P1;SDS_P2;PMS_P1;PMS_P2;Temp;Humidity;BMP_temperature;BMP_pressure;BME280_temperature;BME280_humidity;BME280_pressure;Samples;Min_cycle;Max_cycle;Signal;HPM_P1;HPM_P2
2022/11/08 00:01:33;;;;;;;20.05;3.72;;;;;;;;;;6219376;23;20024;-70
2022/11/08 00:04:04;;;;;;;16.85;3.60;;;;;;;;;;6219130;23;20013;-70
2022/11/08 00:14:47;;;;;;;17.30;4.03;;;;;;;;;;6184162;23;20023;-70
2022/11/08 00:17:14;;;;;;;17.27;3.95;;;;;;;;;;6159509;23;20097;-70
2022/11/08 00:19:41;;;;;;;16.45;3.10;;;;;;;;;;6159652;23;20067;-70
2022/11/08 00:22:07;;;;;;;14.13;3.85;;;;;;;;;;6183911;23;20518;-70
2022/11/08 00:24:33;;;;;;;23.55;3.83;;;;;;;;;;6185654;23;20017;-70
2022/11/08 00:27:00;;;;;;;20.63;4.55;;;;;;;;;;6184015;23;20045;-71
2022/11/08 00:29:26;;;;;;;18.10;3.83;;;;;;;;;;6185572;23;20025;-70
2022/11/08 00:31:52;;;;;;;19.70;3.67;;;;;;;;;;6184145;23;20013;-70
2022/11/08 00:34:18;;;;;;;12.27;3.20;;;;;;;;;;6183703;23;20020;-70
2022/11/08 00:36:44;;;;;;;16.58;3.33;;;;;;;;;;6183865;23;20512;-70
2022/11/08 00:39:10;;;;;;;10.77;3.03;;;;;;;;;;6183840;23;20436;-70
2022/11/08 00:41:36;;;;;;;14.45;3.70;;;;;;;;;;6183909;23;20013;-70
2022/11/08 00:44:02;;;;;;;17.88;3.53;;;;;;;;;;6183821;23;20017;-70
2022/11/08 00:46:29;;;;;;;11.82;2.90;;;;;;;;;;6184124;23;20049;-70
2022/11/08 00:48:55;;;;;;;13.88;3.95;;;;;;;;;;6183632;23;20044;-70
2022/11/08 00:51:21;;;;;;;13.65;3.15;;;;;;;;;;6183677;23;20506;-70
2022/11/08 00:53:47;;;;;;;10.88;3.30;;;;;;;;;;6183531;23;20448;-70
2022/11/08 00:56:13;;;;;;;15.25;3.70;;;;;;;;;;6183875;23;20344;-70
2022/11/08 00:58:43;;;;;;;12.13;3.70;;;;;;;;;;6183743;23;20265;-70
2022/11/08 01:01:13;;;;;;;11.80;3.53;;;;;;;;;;6183920;23;20024;-70
2022/11/08 01:03:40;;;;;;;15.63;3.55;;;;;;;;;;6158535;23;20400;-70
2022/11/08 01:06:07;;;;;;;16.95;3.78;;;;;;;;;;6183495;23;20047;-70
2022/11/08 01:08:33;;;;;;;17.15;3.63;;;;;;;;;;6190158;23;20016;-70
2022/11/08 01:11:01;;;;;;;11.25;3.47;;;;;;;;;;6218997;23;20016;-70
2022/11/08 01:13:27;;;;;;;16.45;3.65;;;;;;;;;;6218753;23;20339;-70
2022/11/08 01:15:53;;;;;;;14.32;3.45;;;;;;;;;;6218862;23;20020;-70
2022/11/08 01:18:19;;;;;;;13.40;3.20;;;;;;;;;;6218447;23;20502;-70
2022/11/08 01:20:46;;;;;;;14.82;3.38;;;;;;;;;;6218780;23;20027;-70
2022/11/08 01:23:13;;;;;;;13.27;3.10;;;;;;;;;;6218535;23;20023;-70
2022/11/08 01:25:40;;;;;;;13.25;3.25;;;;;;;;;;6218686;23;20012;-70
2022/11/08 01:28:06;;;;;;;15.40;3.00;;;;;;;;;;6218766;23;20012;-70
2022/11/08 01:30:36;;;;;;;17.52;3.50;;;;;;;;;;6218648;23;20047;-70
2022/11/08 01:33:02;;;;;;;15.00;3.30;;;;;;;;;;6218559;23;20034;-70
2022/11/08 01:35:30;;;;;;;13.00;3.58;;;;;;;;;;6218421;23;20019;-70
2022/11/08 01:37:56;;;;;;;14.23;2.97;;;;;;;;;;6218518;23;20454;-70
2022/11/08 01:40:22;;;;;;;9.10;2.60;;;;;;;;;;6218459;23;20019;-70
2022/11/08 01:42:48;;;;;;;9.15;2.75;;;;;;;;;;6218312;23;20016;-70
2022/11/08 01:45:14;;;;;;;15.95;3.65;;;;;;;;;;6218506;23;20012;-70
2022/11/08 01:47:40;;;;;;;12.23;2.97;;;;;;;;;;6218472;23;20083;-70
2022/11/08 01:50:06;;;;;;;15.88;3.20;;;;;;;;;;6218343;23;20524;-70
2022/11/08 01:52:32;;;;;;;13.05;3.22;;;;;;;;;;6218481;23;20023;-70
2022/11/08 01:55:07;;;;;;;14.63;4.03;;;;;;;;;;6218346;23;20016;-70
2022/11/08 01:57:42;;;;;;;14.68;3.03;;;;;;;;;;6218420;23;20453;-70
2022/11/08 02:00:11;;;;;;;13.82;3.15;;;;;;;;;;6218403;23;20012;-70
2022/11/08 02:02:38;;;;;;;13.85;3.17;;;;;;;;;;6218378;23;20020;-70
2022/11/08 02:05:06;;;;;;;15.07;3.78;;;;;;;;;;6218410;23;20012;-70
2022/11/08 02:07:33;;;;;;;14.15;3.30;;;;;;;;;;6218356;22;20338;-70
2022/11/08 02:10:00;;;;;;;14.50;4.28;;;;;;;;;;6218065;23;20016;-70
2022/11/08 02:12:27;;;;;;;11.18;3.30;;;;;;;;;;6218312;23;20032;-70
2022/11/08 02:14:53;;;;;;;24.38;3.75;;;;;;;;;;6218280;23;20023;-70
2022/11/08 02:17:19;;;;;;;10.25;3.08;;;;;;;;;;6220447;23;20383;-70
2022/11/08 02:19:47;;;;;;;20.50;4.40;;;;;;;;;;6220184;23;20338;-70
2022/11/08 02:22:17;;;;;;;11.68;2.90;;;;;;;;;;6220274;23;20023;-70
2022/11/08 02:24:43;;;;;;;10.60;3.00;;;;;;;;;;6247045;23;20019;-70
2022/11/08 02:27:09;;;;;;;9.38;2.75;;;;;;;;;;6195337;23;20350;-70
2022/11/08 02:29:36;;;;;;;11.65;3.25;;;;;;;;;;6220254;23;20020;-70
2022/11/08 02:32:04;;;;;;;13.18;2.78;;;;;;;;;;6220089;23;20323;-70
2022/11/08 02:34:45;;;;;;;10.98;2.90;;;;;;;;;;6220107;23;20031;-70
2022/11/08 02:37:13;;;;;;;11.65;3.15;;;;;;;;;;6220046;23;20442;-70
2022/11/08 02:39:39;;;;;;;14.60;4.05;;;;;;;;;;6220228;23;20035;-70
2022/11/08 02:42:05;;;;;;;11.32;2.92;;;;;;;;;;6220266;23;20016;-70
2022/11/08 02:44:31;;;;;;;10.50;3.33;;;;;;;;;;6220237;23;20016;-70
2022/11/08 02:46:57;;;;;;;12.98;3.53;;;;;;;;;;6220335;23;20022;-70
2022/11/08 02:49:23;;;;;;;13.15;2.90;;;;;;;;;;6220096;23;20023;-70
2022/11/08 02:51:51;;;;;;;15.48;3.47;;;;;;;;;;6219925;23;20086;-70
2022/11/08 02:54:17;;;;;;;12.23;3.13;;;;;;;;;;6220122;23;20019;-70
2022/11/08 02:56:43;;;;;;;13.43;3.45;;;;;;;;;;6219887;23;20091;-70
2022/11/08 02:59:09;;;;;;;11.23;3.30;;;;;;;;;;6220021;23;20016;-70
2022/11/08 03:01:35;;;;;;;7.85;2.90;;;;;;;;;;6219941;23;20018;-70
2022/11/08 03:04:01;;;;;;;19.20;3.33;;;;;;;;;;6219885;23;20454;-70
2022/11/08 03:06:27;;;;;;;13.35;2.90;;;;;;;;;;6219914;23;20044;-70
2022/11/08 03:08:53;;;;;;;9.73;2.90;;;;;;;;;;6219549;23;20013;-70
2022/11/08 03:11:19;;;;;;;11.40;2.90;;;;;;;;;;6219977;23;20027;-70
2022/11/08 03:13:46;;;;;;;11.35;2.88;;;;;;;;;;6219934;23;20031;-70
2022/11/08 03:16:12;;;;;;;13.40;3.05;;;;;;;;;;6219802;23;20023;-70
2022/11/08 03:18:38;;;;;;;9.38;2.72;;;;;;;;;;6219699;23;20024;-70
2022/11/08 03:21:04;;;;;;;12.38;3.10;;;;;;;;;;6219707;23;20074;-70
2022/11/08 03:23:31;;;;;;;13.95;3.10;;;;;;;;;;6219443;23;20047;-70
2022/11/08 03:25:59;;;;;;;9.43;3.30;;;;;;;;;;6219611;23;20008;-70
2022/11/08 03:28:25;;;;;;;14.75;3.45;;;;;;;;;;6219295;23;20009;-70
2022/11/08 03:30:52;;;;;;;10.85;3.03;;;;;;;;;;6219543;23;20012;-70
2022/11/08 03:33:18;;;;;;;8.95;2.50;;;;;;;;;;6219273;23;20089;-70
2022/11/08 03:35:44;;;;;;;6.88;3.00;;;;;;;;;;6219475;23;20323;-70
2022/11/08 03:38:10;;;;;;;14.77;3.00;;;;;;;;;;6219552;23;20024;-70
2022/11/08 03:40:36;;;;;;;11.75;3.30;;;;;;;;;;6219522;23;20016;-70
2022/11/08 03:43:02;;;;;;;11.88;3.00;;;;;;;;;;6219444;23;20070;-70
2022/11/08 03:45:28;;;;;;;10.73;2.72;;;;;;;;;;6219353;23;20020;-70
2022/11/08 03:47:54;;;;;;;9.93;2.80;;;;;;;;;;6246353;23;20387;-70
2022/11/08 03:50:20;;;;;;;10.05;2.88;;;;;;;;;;6246265;23;20022;-70
2022/11/08 03:52:48;;;;;;;9.93;3.00;;;;;;;;;;6219369;23;20019;-70
2022/11/08 03:55:14;;;;;;;9.85;3.17;;;;;;;;;;6219369;23;20016;-71
2022/11/08 03:57:41;;;;;;;11.85;3.08;;;;;;;;;;6219355;23;20023;-71
2022/11/08 04:00:08;;;;;;;17.23;3.72;;;;;;;;;;6219218;23;20446;-71
2022/11/08 04:02:34;;;;;;;10.23;2.85;;;;;;;;;;6218351;23;20016;-71
2022/11/08 04:05:00;;;;;;;17.70;3.92;;;;;;;;;;6217679;23;20339;-71
2022/11/08 04:07:27;;;;;;;9.07;3.63;;;;;;;;;;6217904;23;20047;-71
2022/11/08 04:09:56;;;;;;;13.93;2.97;;;;;;;;;;6218324;23;20020;-71
2022/11/08 04:15:14;;;;;;;9.18;2.63;;;;;;;;;;6219099;23;20099;-71
2022/11/08 04:23:14;;;;;;;9.02;2.88;;;;;;;;;;6219023;23;20016;-71
2022/11/08 04:25:40;;;;;;;11.95;3.38;;;;;;;;;;6219214;23;20023;-71
2022/11/08 04:28:06;;;;;;;12.98;3.00;;;;;;;;;;6219057;23;20016;-71
2022/11/08 04:30:32;;;;;;;10.02;2.63;;;;;;;;;;6219106;23;20101;-71
2022/11/08 04:33:00;;;;;;;10.45;2.80;;;;;;;;;;6219144;23;20016;-71
2022/11/08 04:35:26;;;;;;;15.63;2.75;;;;;;;;;;6218862;23;20015;-71
2022/11/08 04:37:52;;;;;;;12.98;3.42;;;;;;;;;;6219010;23;20012;-71
2022/11/08 04:40:18;;;;;;;9.68;3.00;;;;;;;;;;6218777;23;20016;-71
2022/11/08 04:42:44;;;;;;;12.10;2.65;;;;;;;;;;6218853;23;20023;-71
2022/11/08 04:45:10;;;;;;;9.73;2.72;;;;;;;;;;6219018;23;20040;-71
2022/11/08 04:47:36;;;;;;;11.13;4.05;;;;;;;;;;6218818;23;20093;-71
2022/11/08 04:50:02;;;;;;;12.50;3.33;;;;;;;;;;6246010;23;20023;-71
2022/11/08 04:52:29;;;;;;;7.97;2.60;;;;;;;;;;6218819;23;20030;-71
2022/11/08 04:54:55;;;;;;;10.07;3.03;;;;;;;;;;6218996;23;20016;-71
2022/11/08 04:57:21;;;;;;;14.23;3.42;;;;;;;;;;6218791;23;20469;-71
2022/11/08 04:59:47;;;;;;;15.38;4.05;;;;;;;;;;6219045;23;20020;-71
2022/11/08 05:02:13;;;;;;;10.27;2.95;;;;;;;;;;6218788;23;20012;-71
2022/11/08 05:04:39;;;;;;;12.75;3.00;;;;;;;;;;6245606;23;20065;-71
2022/11/08 05:07:05;;;;;;;13.63;2.85;;;;;;;;;;6218759;23;20406;-71
2022/11/08 05:09:31;;;;;;;10.57;2.85;;;;;;;;;;6179405;23;20021;-71
2022/11/08 05:11:57;;;;;;;10.88;2.92;;;;;;;;;;6183705;23;20440;-71
2022/11/08 05:14:23;;;;;;;10.70;3.17;;;;;;;;;;6158714;23;20072;-71
2022/11/08 05:16:49;;;;;;;15.25;3.47;;;;;;;;;;6183744;23;20135;-71
2022/11/08 05:23:22;;;;;;;11.98;2.97;;;;;;;;;;6183553;23;20451;-71
2022/11/08 05:24:46;;;;;;;11.40;3.25;;;;;;;;;;6162697;23;20456;-71
2022/11/08 05:27:12;;;;;;;9.40;2.92;;;;;;;;;;6183718;23;20016;-71
2022/11/08 05:29:38;;;;;;;7.65;3.03;;;;;;;;;;6183444;23;20028;-71
2022/11/08 05:32:04;;;;;;;13.52;2.75;;;;;;;;;;6183403;23;20012;-71
2022/11/08 05:34:30;;;;;;;15.65;3.95;;;;;;;;;;6183382;23;20013;-71
2022/11/08 05:36:56;;;;;;;9.90;2.83;;;;;;;;;;6158742;23;20017;-71
2022/11/08 05:39:22;;;;;;;10.02;3.00;;;;;;;;;;6183538;23;20032;-71
2022/11/08 05:41:48;;;;;;;11.48;3.20;;;;;;;;;;6183453;23;20013;-71
2022/11/08 05:44:14;;;;;;;9.32;3.80;;;;;;;;;;6183260;23;20076;-71
2022/11/08 05:46:41;;;;;;;10.00;3.05;;;;;;;;;;6183646;23;20013;-71
2022/11/08 05:49:07;;;;;;;13.43;3.90;;;;;;;;;;6183400;23;20009;-71
2022/11/08 05:51:33;;;;;;;9.52;3.67;;;;;;;;;;6186082;23;20075;-71
2022/11/08 05:53:59;;;;;;;11.60;3.33;;;;;;;;;;6186542;23;20511;-71
2022/11/08 05:56:25;;;;;;;11.45;3.33;;;;;;;;;;6186825;23;20321;-71
2022/11/08 05:58:51;;;;;;;7.07;3.17;;;;;;;;;;6186882;23;20087;-71
2022/11/08 06:01:18;;;;;;;9.23;3.75;;;;;;;;;;6186805;23;20087;-71
2022/11/08 06:03:44;;;;;;;11.18;3.15;;;;;;;;;;6137279;23;20044;-71
2022/11/08 06:06:12;;;;;;;9.00;3.33;;;;;;;;;;6186341;23;20036;-71
2022/11/08 06:08:38;;;;;;;14.57;3.10;;;;;;;;;;6185952;23;20013;-71
2022/11/08 06:11:05;;;;;;;10.20;3.30;;;;;;;;;;6244549;23;20381;-71
2022/11/08 06:13:31;;;;;;;9.65;2.90;;;;;;;;;;6221244;23;20016;-71
2022/11/08 06:16:01;;;;;;;9.68;3.05;;;;;;;;;;6221668;23;20020;-71
2022/11/08 06:18:28;;;;;;;9.70;3.20;;;;;;;;;;6221660;23;20042;-71
2022/11/08 06:20:54;;;;;;;8.52;3.20;;;;;;;;;;6196740;23;20070;-70
2022/11/08 06:23:20;;;;;;;10.65;3.10;;;;;;;;;;6221604;23;20020;-70
2022/11/08 06:25:46;;;;;;;12.65;3.22;;;;;;;;;;6221720;23;20143;-70
2022/11/08 06:28:13;;;;;;;9.30;2.80;;;;;;;;;;6221649;23;20008;-70
2022/11/08 06:30:39;;;;;;;7.10;2.80;;;;;;;;;;6221505;23;20105;-70
2022/11/08 06:33:05;;;;;;;7.45;2.70;;;;;;;;;;6221729;23;20020;-71
2022/11/08 06:35:31;;;;;;;8.35;3.00;;;;;;;;;;6196420;23;20020;-70
2022/11/08 06:37:57;;;;;;;8.05;3.00;;;;;;;;;;6221511;23;20111;-71
2022/11/08 06:40:23;;;;;;;11.68;3.15;;;;;;;;;;6221486;23;20012;-70
2022/11/08 06:42:51;;;;;;;8.85;3.00;;;;;;;;;;6221558;23;20013;-70
2022/11/08 06:45:17;;;;;;;14.27;2.97;;;;;;;;;;6221458;23;20477;-71
2022/11/08 06:47:43;;;;;;;10.57;2.97;;;;;;;;;;6221742;23;20107;-71
2022/11/08 06:50:09;;;;;;;8.27;3.05;;;;;;;;;;6196508;23;20012;-71
2022/11/08 06:52:35;;;;;;;6.43;2.70;;;;;;;;;;6221636;23;20016;-71
2022/11/08 06:55:01;;;;;;;14.10;2.88;;;;;;;;;;6221527;23;20020;-70
2022/11/08 06:57:27;;;;;;;8.30;2.80;;;;;;;;;;6221618;23;20023;-71
2022/11/08 06:59:53;;;;;;;6.55;2.53;;;;;;;;;;6221386;23;20432;-71
2022/11/08 07:02:19;;;;;;;8.65;3.20;;;;;;;;;;6220031;23;20020;-71
2022/11/08 07:04:45;;;;;;;13.75;4.05;;;;;;;;;;6219593;23;20014;-71
2022/11/08 07:07:13;;;;;;;9.32;2.75;;;;;;;;;;6220143;23;20020;-71
2022/11/08 07:09:39;;;;;;;9.13;2.80;;;;;;;;;;6194659;23;20023;-71
2022/11/08 07:12:05;;;;;;;11.57;3.00;;;;;;;;;;6219728;23;20458;-70
2022/11/08 07:14:31;;;;;;;9.30;2.30;;;;;;;;;;6219743;23;20012;-70
2022/11/08 07:16:57;;;;;;;7.32;3.13;;;;;;;;;;6219752;23;20012;-70
2022/11/08 07:19:23;;;;;;;7.75;2.80;;;;;;;;;;6219795;23;20319;-70
2022/11/08 07:21:49;;;;;;;7.30;3.28;;;;;;;;;;6219686;23;20018;-70
2022/11/08 07:24:15;;;;;;;6.60;3.15;;;;;;;;;;6219522;23;20077;-70
2022/11/08 07:26:42;;;;;;;10.27;2.80;;;;;;;;;;6218841;23;20043;-70
2022/11/08 07:29:08;;;;;;;6.22;2.90;;;;;;;;;;6218866;23;20012;-70
2022/11/08 07:31:34;;;;;;;7.90;3.10;;;;;;;;;;6219015;23;20008;-71
2022/11/08 07:34:00;;;;;;;10.20;3.38;;;;;;;;;;6220151;23;20016;-70
2022/11/08 07:36:26;;;;;;;7.80;3.20;;;;;;;;;;6220131;23;20070;-70
2022/11/08 07:38:52;;;;;;;7.75;2.60;;;;;;;;;;6246958;23;20016;-70
2022/11/08 07:41:18;;;;;;;10.63;3.10;;;;;;;;;;6220048;23;20039;-70
2022/11/08 07:43:44;;;;;;;10.07;2.88;;;;;;;;;;6220004;23;20047;-70
2022/11/08 07:46:10;;;;;;;6.22;2.70;;;;;;;;;;6219964;23;20016;-70
2022/11/08 07:48:36;;;;;;;8.38;3.28;;;;;;;;;;6220069;23;20027;-70
2022/11/08 07:51:02;;;;;;;7.72;2.97;;;;;;;;;;6247244;23;20015;-70
2022/11/08 07:53:29;;;;;;;8.07;2.80;;;;;;;;;;6195128;23;20020;-71
2022/11/08 07:55:57;;;;;;;9.82;2.97;;;;;;;;;;6219917;23;20506;-71
2022/11/08 07:58:23;;;;;;;11.68;3.55;;;;;;;;;;6219646;23;20047;-71
2022/11/08 08:00:49;;;;;;;8.57;2.72;;;;;;;;;;6217850;23;20020;-70
2022/11/08 08:03:15;;;;;;;11.45;2.95;;;;;;;;;;6218073;23;20443;-70
2022/11/08 08:05:43;;;;;;;7.65;3.30;;;;;;;;;;6218482;23;20015;-70
2022/11/08 08:08:10;;;;;;;11.57;3.40;;;;;;;;;;6217183;23;20019;-71
2022/11/08 08:10:36;;;;;;;7.85;3.22;;;;;;;;;;6195769;23;20024;-71
2022/11/08 08:13:02;;;;;;;7.75;3.00;;;;;;;;;;6178874;23;20028;-71
2022/11/08 08:15:28;;;;;;;10.93;3.50;;;;;;;;;;6181678;23;20021;-71
2022/11/08 08:17:55;;;;;;;6.80;2.80;;;;;;;;;;6182287;23;20021;-70
2022/11/08 08:20:21;;;;;;;10.93;3.42;;;;;;;;;;6156746;23;20104;-71
2022/11/08 08:22:48;;;;;;;6.75;3.15;;;;;;;;;;6183980;23;20021;-71
2022/11/08 08:25:15;;;;;;;8.20;2.92;;;;;;;;;;6186128;23;20013;-71
2022/11/08 08:27:46;;;;;;;8.75;3.03;;;;;;;;;;6184680;23;20325;-71
2022/11/08 08:30:12;;;;;;;6.00;3.00;;;;;;;;;;6182438;23;20013;-71
2022/11/08 08:32:38;;;;;;;11.38;3.20;;;;;;;;;;6182526;23;20052;-71
2022/11/08 08:35:04;;;;;;;7.20;3.05;;;;;;;;;;6184152;23;20344;-71
2022/11/08 08:37:30;;;;;;;6.22;3.00;;;;;;;;;;6184243;23;20024;-71
2022/11/08 08:39:56;;;;;;;9.90;3.65;;;;;;;;;;6159513;23;20328;-71
2022/11/08 08:42:22;;;;;;;9.55;3.30;;;;;;;;;;6183907;23;20032;-71
2022/11/08 08:44:48;;;;;;;7.93;2.88;;;;;;;;;;6184350;23;20013;-71
2022/11/08 08:47:14;;;;;;;8.43;2.75;;;;;;;;;;6184298;23;20013;-71
2022/11/08 08:49:40;;;;;;;8.80;3.50;;;;;;;;;;6159706;23;20009;-71
2022/11/08 08:52:06;;;;;;;9.05;3.05;;;;;;;;;;6184283;23;20013;-71
2022/11/08 08:54:32;;;;;;;11.48;3.03;;;;;;;;;;6183977;23;20024;-71
2022/11/08 08:56:58;;;;;;;9.98;3.15;;;;;;;;;;6159452;23;20013;-71
2022/11/08 08:59:26;;;;;;;8.98;2.97;;;;;;;;;;6181802;23;20024;-71
2022/11/08 09:01:52;;;;;;;10.85;2.90;;;;;;;;;;6181565;23;20009;-71
2022/11/08 09:04:18;;;;;;;13.50;5.18;;;;;;;;;;6181748;23;20024;-71
2022/11/08 09:06:44;;;;;;;7.70;2.63;;;;;;;;;;6182547;23;20009;-71
2022/11/08 09:09:10;;;;;;;8.85;3.03;;;;;;;;;;6157977;23;20510;-70
2022/11/08 09:11:37;;;;;;;6.55;3.45;;;;;;;;;;6186868;23;20024;-71
2022/11/08 09:14:03;;;;;;;7.88;3.10;;;;;;;;;;6184033;23;20347;-71
2022/11/08 09:16:29;;;;;;;5.07;2.78;;;;;;;;;;6184003;23;20013;-71
2022/11/08 09:18:55;;;;;;;11.18;3.25;;;;;;;;;;6183945;23;20013;-71
2022/11/08 09:21:21;;;;;;;6.35;3.00;;;;;;;;;;6183881;23;20016;-71
2022/11/08 09:23:47;;;;;;;12.30;3.10;;;;;;;;;;6183857;23;20013;-71
2022/11/08 09:26:13;;;;;;;6.68;2.83;;;;;;;;;;6183578;23;20049;-71
2022/11/08 09:28:39;;;;;;;5.45;2.92;;;;;;;;;;6159128;23;20087;-71
2022/11/08 09:31:07;;;;;;;7.13;3.38;;;;;;;;;;6183772;23;20013;-71
2022/11/08 09:33:34;;;;;;;10.43;3.70;;;;;;;;;;6159136;23;20031;-71
2022/11/08 09:36:00;;;;;;;12.50;3.15;;;;;;;;;;6183770;23;20017;-71
2022/11/08 09:38:27;;;;;;;8.35;3.00;;;;;;;;;;6183952;23;20091;-71
2022/11/08 09:41:00;;;;;;;7.78;3.20;;;;;;;;;;6183858;23;20443;-71
2022/11/08 09:43:35;;;;;;;7.05;3.00;;;;;;;;;;6183724;23;20021;-71
2022/11/08 09:46:01;;;;;;;8.38;3.28;;;;;;;;;;6183851;23;20044;-71
2022/11/08 09:48:30;;;;;;;9.57;3.95;;;;;;;;;;6183929;23;20483;-71
2022/11/08 09:50:56;;;;;;;8.60;3.15;;;;;;;;;;6185770;23;20013;-71
2022/11/08 09:53:22;;;;;;;5.75;3.05;;;;;;;;;;6183767;23;20021;-71
2022/11/08 09:55:54;;;;;;;5.90;2.95;;;;;;;;;;6183422;23;20017;-71
2022/11/08 09:58:21;;;;;;;7.38;3.30;;;;;;;;;;6183757;23;20351;-71
2022/11/08 10:00:49;;;;;;;5.00;2.80;;;;;;;;;;6183774;23;20079;-71
2022/11/08 10:03:16;;;;;;;7.28;2.97;;;;;;;;;;6158960;23;20016;-70
2022/11/08 10:05:52;;;;;;;6.95;2.85;;;;;;;;;;6185474;23;20024;-71
2022/11/08 10:08:25;;;;;;;6.88;3.03;;;;;;;;;;6159011;23;20009;-71
2022/11/08 10:11:00;;;;;;;6.32;2.80;;;;;;;;;;6189839;23;20472;-71
2022/11/08 10:13:26;;;;;;;5.75;2.55;;;;;;;;;;6183855;23;20044;-71
2022/11/08 10:15:55;;;;;;;6.22;2.67;;;;;;;;;;6183654;23;20427;-71
2022/11/08 10:18:54;;;;;;;5.30;2.58;;;;;;;;;;6183277;23;20025;-71
2022/11/08 10:21:23;;;;;;;6.88;2.85;;;;;;;;;;6150862;23;20081;-71
2022/11/08 10:23:59;;;;;;;6.53;2.95;;;;;;;;;;6183516;23;20018;-70
2022/11/08 10:26:29;;;;;;;5.90;2.78;;;;;;;;;;6183637;23;20009;-71
2022/11/08 10:29:02;;;;;;;8.85;2.78;;;;;;;;;;6183471;23;20425;-71
2022/11/08 10:31:34;;;;;;;9.23;2.72;;;;;;;;;;6183580;23;20017;-70
2022/11/08 10:34:01;;;;;;;8.90;2.67;;;;;;;;;;6183395;23;20017;-70
2022/11/08 10:36:39;;;;;;;5.93;2.88;;;;;;;;;;6184080;23;20020;-71
2022/11/08 10:39:12;;;;;;;10.52;2.92;;;;;;;;;;6185490;23;20092;-71
2022/11/08 10:41:44;;;;;;;10.50;2.78;;;;;;;;;;6185551;23;20017;-71
2022/11/08 10:44:14;;;;;;;5.72;2.28;;;;;;;;;;6160353;23;20017;-71
2022/11/08 10:46:42;;;;;;;8.73;3.15;;;;;;;;;;6185038;23;20009;-71
2022/11/08 10:49:11;;;;;;;10.27;2.70;;;;;;;;;;6185310;23;20016;-71
2022/11/08 10:51:38;;;;;;;6.85;2.53;;;;;;;;;;6160718;23;20068;-69
2022/11/08 10:54:04;;;;;;;6.15;2.58;;;;;;;;;;6185425;23;20024;-70
2022/11/08 10:56:30;;;;;;;6.28;2.50;;;;;;;;;;6186848;23;20113;-70
2022/11/08 10:58:56;;;;;;;5.88;2.50;;;;;;;;;;6160472;23;20366;-70
2022/11/08 11:01:24;;;;;;;6.60;2.72;;;;;;;;;;6185104;23;20103;-70
2022/11/08 11:03:51;;;;;;;6.22;2.80;;;;;;;;;;6185154;23;20017;-69
2022/11/08 11:06:28;;;;;;;6.07;2.67;;;;;;;;;;6185502;23;20096;-70
2022/11/08 11:08:56;;;;;;;6.13;2.60;;;;;;;;;;6160151;23;20056;-70
2022/11/08 11:11:24;;;;;;;8.52;2.95;;;;;;;;;;6206160;23;20020;-70
2022/11/08 11:14:06;;;;;;;5.90;2.63;;;;;;;;;;6220222;23;20446;-71
2022/11/08 11:16:32;;;;;;;5.25;3.15;;;;;;;;;;6220268;23;20020;-70
2022/11/08 11:19:00;;;;;;;5.65;2.47;;;;;;;;;;6220001;23;20016;-71
2022/11/08 11:21:33;;;;;;;7.78;2.75;;;;;;;;;;6220041;23;20027;-71
2022/11/08 11:24:08;;;;;;;9.90;4.05;;;;;;;;;;6219895;23;20016;-71
2022/11/08 11:26:37;;;;;;;9.43;3.22;;;;;;;;;;6246959;23;20500;-69
2022/11/08 11:29:04;;;;;;;9.05;3.55;;;;;;;;;;6220123;23;20062;-70
2022/11/08 11:31:34;;;;;;;6.43;2.85;;;;;;;;;;6219996;23;20401;-70
2022/11/08 11:34:20;;;;;;;7.45;2.58;;;;;;;;;;6220078;23;20087;-68
2022/11/08 11:36:53;;;;;;;4.78;2.42;;;;;;;;;;6219946;23;20020;-70
2022/11/08 11:39:26;;;;;;;6.60;2.72;;;;;;;;;;6219813;23;20034;-70
2022/11/08 11:42:00;;;;;;;6.47;2.70;;;;;;;;;;6219979;23;20502;-70
2022/11/08 11:44:29;;;;;;;5.90;2.67;;;;;;;;;;6219880;23;20047;-71
2022/11/08 11:46:55;;;;;;;6.35;2.33;;;;;;;;;;6219616;23;20008;-70
2022/11/08 11:49:21;;;;;;;6.32;2.67;;;;;;;;;;6219455;23;20115;-70
2022/11/08 11:51:51;;;;;;;8.27;2.55;;;;;;;;;;6220072;23;20012;-70
2022/11/08 11:54:17;;;;;;;6.75;2.70;;;;;;;;;;6219907;23;20016;-70
2022/11/08 11:57:03;;;;;;;6.32;2.75;;;;;;;;;;6219670;23;20444;-70
2022/11/08 11:59:45;;;;;;;9.35;2.92;;;;;;;;;;6217773;23;20102;-70
2022/11/08 12:02:14;;;;;;;6.88;2.90;;;;;;;;;;6217545;23;20355;-70
2022/11/08 12:04:54;;;;;;;6.88;2.42;;;;;;;;;;6217737;23;20018;-70
2022/11/08 12:07:26;;;;;;;3.90;2.40;;;;;;;;;;6217689;23;20020;-70
2022/11/08 12:09:52;;;;;;;5.03;2.63;;;;;;;;;;6216860;23;20093;-71
2022/11/08 12:12:18;;;;;;;9.50;3.83;;;;;;;;;;6186062;23;20097;-70
2022/11/08 12:14:49;;;;;;;10.10;2.63;;;;;;;;;;6184131;23;20116;-71
2022/11/08 12:17:34;;;;;;;5.50;2.17;;;;;;;;;;6184156;23;20069;-70
2022/11/08 12:20:06;;;;;;;5.80;2.65;;;;;;;;;;6184131;23;20340;-71
2022/11/08 12:22:33;;;;;;;10.38;2.92;;;;;;;;;;6184156;23;20116;-71
2022/11/08 12:25:19;;;;;;;11.95;2.97;;;;;;;;;;6184051;23;20063;-71
2022/11/08 12:27:55;;;;;;;9.13;2.55;;;;;;;;;;6184089;23;20048;-70
2022/11/08 12:30:25;;;;;;;7.18;2.63;;;;;;;;;;6187944;23;20383;-69
2022/11/08 12:32:57;;;;;;;8.18;2.83;;;;;;;;;;6186016;23;20048;-70
2022/11/08 12:35:23;;;;;;;9.73;3.15;;;;;;;;;;6184286;23;20100;-71
2022/11/08 12:38:07;;;;;;;7.93;2.58;;;;;;;;;;6183989;23;20017;-71
2022/11/08 12:40:51;;;;;;;8.23;2.28;;;;;;;;;;6185452;23;20009;-71
2022/11/08 12:43:37;;;;;;;7.38;2.35;;;;;;;;;;6183797;23;20025;-71
2022/11/08 12:46:11;;;;;;;7.57;2.55;;;;;;;;;;6158926;23;20447;-70
2022/11/08 12:49:00;;;;;;;10.50;2.45;;;;;;;;;;6183795;23;20064;-70
2022/11/08 12:51:45;;;;;;;5.45;2.70;;;;;;;;;;6183722;23;20316;-70
2022/11/08 12:54:30;;;;;;;7.28;2.10;;;;;;;;;;6183734;23;20344;-70
2022/11/08 12:56:59;;;;;;;5.45;2.17;;;;;;;;;;6183762;23;20091;-70
2022/11/08 12:59:32;;;;;;;7.20;2.60;;;;;;;;;;6183488;23;20024;-70
2022/11/08 13:02:00;;;;;;;6.97;2.38;;;;;;;;;;6183392;23;20017;-77
2022/11/08 13:04:33;;;;;;;6.45;2.72;;;;;;;;;;6183551;23;20144;-71
2022/11/08 13:07:08;;;;;;;5.60;2.50;;;;;;;;;;6183606;23;20010;-71
2022/11/08 13:09:47;;;;;;;11.77;2.65;;;;;;;;;;6183497;23;20344;-71
2022/11/08 13:12:16;;;;;;;4.50;2.17;;;;;;;;;;6215386;23;20020;-71
2022/11/08 13:14:42;;;;;;;5.45;2.30;;;;;;;;;;6218682;23;20089;-68
2022/11/08 13:17:08;;;;;;;8.07;3.08;;;;;;;;;;6219009;23;20019;-71
2022/11/08 13:19:47;;;;;;;5.13;2.30;;;;;;;;;;6218651;23;20087;-71
2022/11/08 13:22:28;;;;;;;7.07;2.78;;;;;;;;;;6218629;23;20045;-71
2022/11/08 13:25:01;;;;;;;6.38;2.53;;;;;;;;;;6218694;23;20462;-71
2022/11/08 13:27:40;;;;;;;5.85;2.30;;;;;;;;;;6218597;23;20016;-71
2022/11/08 13:30:16;;;;;;;8.25;2.67;;;;;;;;;;6218277;23;20091;-71
2022/11/08 13:32:42;;;;;;;9.00;2.83;;;;;;;;;;6218598;23;20016;-71
2022/11/08 13:35:17;;;;;;;5.10;2.40;;;;;;;;;;6218291;23;20026;-70
2022/11/08 13:37:47;;;;;;;8.70;2.30;;;;;;;;;;6218243;23;20335;-70
2022/11/08 13:40:31;;;;;;;5.07;2.70;;;;;;;;;;6218542;23;20044;-71
2022/11/08 13:43:00;;;;;;;14.23;2.85;;;;;;;;;;6218234;23;20016;-71
2022/11/08 13:45:31;;;;;;;6.68;2.65;;;;;;;;;;6244985;23;20027;-71
2022/11/08 13:47:58;;;;;;;5.82;2.60;;;;;;;;;;6218378;23;20050;-71
2022/11/08 13:50:27;;;;;;;7.68;2.75;;;;;;;;;;6218120;23;20020;-71
2022/11/08 13:53:07;;;;;;;5.10;2.38;;;;;;;;;;6218267;23;20448;-71
2022/11/08 13:55:42;;;;;;;5.38;2.50;;;;;;;;;;6217994;23;20341;-71
2022/11/08 13:58:29;;;;;;;6.90;2.80;;;14.60;99.90;;;;;;6218242;23;20012;-71
2022/11/08 14:00:56;;;;;;;7.78;2.65;;;;;;;;;;6217865;23;20069;-71
2022/11/08 14:03:34;;;;;;;9.57;2.30;;;;;;;;;;6217975;23;20027;-71
2022/11/08 14:06:06;;;;;;;5.40;2.50;;;;;;;;;;6218190;23;20514;-71
2022/11/08 14:08:35;;;;;;;5.18;2.30;;;;;;;;;;6218230;23;20150;-72
2022/11/08 14:11:22;;;;;;;4.70;2.13;;;;;;;;;;6218055;23;20023;-71
2022/11/08 14:13:51;;;;;;;6.07;2.67;;;;;;;;;;6220107;23;20349;-71
2022/11/08 14:16:23;;;;;;;5.82;2.47;;;;;;;;;;6220090;23;20026;-71
2022/11/08 14:18:49;;;;;;;;;;;;;;;;;;6221229;23;20024;-71
2022/11/08 14:21:19;;;;;;;5.05;2.70;;;;;;;;;;6220119;23;19934;-71
2022/11/08 14:23:48;;;;;;;11.45;2.60;;;;;;;;;;6220328;23;20012;-72
2022/11/08 14:26:20;;;;;;;7.28;2.72;;;;;;;;;;6220212;23;20016;-72
2022/11/08 14:28:47;;;;;;;10.15;2.72;;;;;;;;;;6220045;23;20008;-71
2022/11/08 14:31:32;;;;;;;5.43;3.00;;;;;;;;;;6220107;23;20122;-72
2022/11/08 14:33:59;;;;;;;6.55;2.55;;;;;;;;;;6220106;23;20016;-72
2022/11/08 14:36:26;;;;;;;5.50;2.47;;;;;;;;;;6220160;23;20117;-71
2022/11/08 14:38:58;;;;;;;8.60;2.88;;;;;;;;;;6220443;23;20370;-72
2022/11/08 14:41:26;;;;;;;6.13;2.28;;;;;;;;;;6220448;23;20031;-71
2022/11/08 14:43:53;;;;;;;12.68;3.03;;;;;;;;;;6247375;23;20347;-72
2022/11/08 14:46:36;;;;;;;6.90;2.75;;;;;;;;;;6220312;23;20016;-72
2022/11/08 14:49:10;;;;;;;13.93;2.58;;;;;;;;;;6220399;23;20505;-72
2022/11/08 14:51:36;;;;;;;8.07;2.53;;;;;;;;;;6220651;23;20135;-72
2022/11/08 14:54:02;;;;;;;6.53;2.83;;;;;;;;;;6247578;23;20018;-72
2022/11/08 14:56:36;;;;;;;7.28;2.45;;;;;;;;;;6220373;23;20076;-72
2022/11/08 14:59:05;;;;;;;6.15;2.67;;;;;;;;;;6220225;23;20016;-72
2022/11/08 15:01:31;;;;;;;7.45;2.83;;;;;;;;;;6220213;23;20012;-71
2022/11/08 15:03:59;;;;;;;10.32;2.58;;;;;;;;;;6220109;23;20451;-71
2022/11/08 15:06:33;;;;;;;8.38;2.70;;;;;;;;;;6220834;23;20061;-71